createdAt,value
2022-12-25T00:01:11.269Z,6.50
2022-12-25T00:03:48.276Z,6.48
2022-12-25T00:06:16.105Z,6.48
2022-12-25T00:08:44.073Z,6.46
2022-12-25T00:11:13.820Z,6.46
2022-12-25T00:13:42.792Z,6.47
2022-12-25T00:16:13.247Z,6.47
2022-12-25T00:18:41.135Z,6.49
2022-12-25T00:21:08.888Z,6.49
2022-12-25T00:23:36.565Z,6.50
2022-12-25T00:26:08.713Z,6.50
2022-12-25T00:28:36.971Z,6.49
2022-12-25T00:31:08.462Z,6.49
2022-12-25T00:33:37.207Z,6.46
2022-12-25T00:36:06.418Z,6.43
2022-12-25T00:38:35.103Z,6.40
2022-12-25T00:41:13.377Z,6.36
2022-12-25T00:43:44.158Z,6.33
2022-12-25T00:46:12.661Z,6.31
2022-12-25T00:48:40.824Z,6.29
2022-12-25T00:51:11.064Z,6.24
2022-12-25T00:53:38.755Z,6.18
2022-12-25T00:56:07.480Z,6.13
2022-12-25T00:58:35.419Z,6.09
2022-12-25T01:02:04.384Z,6.07
2022-12-25T01:04:32.369Z,6.03
2022-12-25T01:07:00.119Z,6.01
2022-12-25T01:09:46.413Z,5.98
2022-12-25T01:12:15.354Z,5.95
2022-12-25T01:14:43.508Z,5.93
2022-12-25T01:17:12.625Z,5.89
2022-12-25T01:19:42.884Z,5.87
2022-12-25T01:22:11.555Z,5.85
2022-12-25T01:24:40.794Z,5.84
2022-12-25T01:27:10.683Z,5.82
2022-12-25T01:29:40.273Z,5.82
2022-12-25T01:32:08.630Z,5.82
2022-12-25T01:34:37.898Z,5.82
2022-12-25T01:37:05.885Z,5.85
2022-12-25T01:39:34.158Z,5.87
2022-12-25T01:42:02.338Z,5.88
2022-12-25T01:44:35.013Z,5.90
2022-12-25T01:47:06.830Z,5.89
2022-12-25T01:49:36.410Z,5.89
2022-12-25T01:52:24.816Z,5.89
2022-12-25T01:54:57.730Z,5.90
2022-12-25T01:57:29.502Z,5.93
2022-12-25T01:59:57.806Z,5.96
2022-12-25T02:02:25.929Z,6.00
2022-12-25T02:05:04.657Z,6.05
2022-12-25T02:07:33.675Z,6.09
2022-12-25T02:10:01.597Z,6.11
2022-12-25T02:12:32.328Z,6.12
2022-12-25T02:15:08.346Z,6.13
2022-12-25T02:17:50.209Z,6.12
2022-12-25T02:20:23.809Z,6.14
2022-12-25T02:23:10.463Z,6.15
2022-12-25T02:25:47.302Z,6.15
2022-12-25T02:28:24.094Z,6.15
2022-12-25T02:31:02.505Z,6.14
2022-12-25T02:33:54.246Z,6.09
2022-12-25T02:36:24.034Z,6.04
2022-12-25T02:39:13.387Z,5.98
2022-12-25T02:41:43.855Z,5.92
2022-12-25T02:44:35.321Z,5.86
2022-12-25T02:47:23.438Z,5.79
2022-12-25T02:50:11.579Z,5.74
2022-12-25T02:52:59.259Z,5.68
2022-12-25T02:55:49.476Z,5.65
2022-12-25T02:58:38.446Z,5.63
2022-12-25T03:01:27.837Z,5.61
2022-12-25T03:04:15.842Z,5.59
2022-12-25T03:06:57.175Z,5.58
2022-12-25T03:09:46.409Z,5.56
2022-12-25T03:12:20.623Z,5.55
2022-12-25T03:15:07.366Z,5.52
2022-12-25T03:17:35.651Z,5.51
2022-12-25T03:20:22.687Z,5.51
2022-12-25T03:23:09.222Z,5.49
2022-12-25T03:25:55.727Z,5.47
2022-12-25T03:28:25.512Z,5.46
2022-12-25T03:31:14.209Z,5.44
2022-12-25T03:34:02.153Z,5.41
2022-12-25T03:36:41.112Z,5.38
2022-12-25T03:39:51.692Z,5.36
2022-12-25T03:42:41.939Z,5.33
2022-12-25T03:45:32.126Z,5.29
2022-12-25T03:48:19.240Z,5.26
2022-12-25T03:51:07.541Z,5.24
2022-12-25T03:54:01.693Z,5.21
2022-12-25T03:56:49.152Z,5.19
2022-12-25T03:59:41.256Z,5.17
2022-12-25T04:02:27.759Z,5.14
2022-12-25T04:05:14.583Z,5.13
2022-12-25T04:08:01.340Z,5.12
2022-12-25T04:10:48.141Z,5.08
2022-12-25T04:13:34.598Z,5.05
2022-12-25T04:16:23.732Z,5.01
2022-12-25T04:19:10.031Z,4.99
2022-12-25T04:21:56.400Z,4.95
2022-12-25T04:24:43.605Z,4.90
2022-12-25T04:27:30.712Z,4.83
2022-12-25T04:30:26.010Z,4.76
2022-12-25T04:33:16.096Z,4.72
2022-12-25T04:36:08.492Z,4.69
2022-12-25T04:38:37.313Z,4.66
2022-12-25T04:41:06.521Z,4.63
2022-12-25T04:43:34.493Z,4.62
2022-12-25T04:46:03.342Z,4.60
2022-12-25T04:48:32.706Z,4.58
2022-12-25T04:51:15.389Z,4.56
2022-12-25T04:53:43.913Z,4.54
2022-12-25T04:56:11.902Z,4.51
2022-12-25T04:58:41.781Z,4.49
2022-12-25T05:01:10.239Z,4.45
2022-12-25T05:03:38.031Z,4.43
2022-12-25T05:06:06.792Z,4.39
2022-12-25T05:08:35.158Z,4.36
2022-12-25T05:11:07.677Z,4.35
2022-12-25T05:13:36.194Z,4.34
2022-12-25T05:16:07.629Z,4.34
2022-12-25T05:18:35.733Z,4.34
2022-12-25T05:21:04.519Z,4.36
2022-12-25T05:23:32.313Z,4.39
2022-12-25T05:26:03.404Z,4.43
2022-12-25T05:28:31.390Z,4.47
2022-12-25T05:30:59.379Z,4.53
2022-12-25T05:33:27.216Z,4.58
2022-12-25T05:35:55.666Z,4.62
2022-12-25T05:38:23.346Z,4.68
2022-12-25T05:40:52.170Z,4.72
2022-12-25T05:43:20.101Z,4.76
2022-12-25T05:45:47.720Z,4.78
2022-12-25T05:48:16.073Z,4.80
2022-12-25T05:50:44.395Z,4.80
2022-12-25T05:53:13.560Z,4.79
2022-12-25T05:55:43.767Z,4.80
2022-12-25T05:58:12.669Z,4.80
2022-12-25T06:00:40.880Z,4.80
2022-12-25T06:03:09.987Z,4.79
2022-12-25T06:05:39.225Z,4.76
2022-12-25T06:08:09.614Z,4.72
2022-12-25T06:10:37.509Z,4.70
2022-12-25T06:13:05.492Z,4.65
2022-12-25T06:15:33.804Z,4.61
2022-12-25T06:18:01.693Z,4.58
2022-12-25T06:20:29.673Z,4.54
2022-12-25T06:22:57.263Z,4.49
2022-12-25T06:25:25.205Z,4.46
2022-12-25T06:27:53.620Z,4.42
2022-12-25T06:30:21.611Z,4.38
2022-12-25T06:32:49.594Z,4.33
2022-12-25T06:35:17.566Z,4.29
2022-12-25T06:37:45.151Z,4.24
2022-12-25T06:40:15.635Z,4.19
2022-12-25T06:42:43.920Z,4.16
2022-12-25T06:45:11.599Z,4.12
2022-12-25T06:47:40.444Z,4.08
2022-12-25T06:50:09.465Z,4.04
2022-12-25T06:52:37.072Z,4.02
2022-12-25T06:55:05.294Z,3.99
2022-12-25T06:57:33.120Z,3.95
2022-12-25T07:00:03.546Z,3.91
2022-12-25T07:02:32.894Z,3.89
2022-12-25T07:05:01.175Z,3.87
2022-12-25T07:07:28.829Z,3.86
2022-12-25T07:09:56.495Z,3.83
2022-12-25T07:12:24.676Z,3.82
2022-12-25T07:14:53.931Z,3.82
2022-12-25T07:17:23.579Z,3.83
2022-12-25T07:19:51.514Z,3.86
2022-12-25T07:22:20.675Z,3.88
2022-12-25T07:24:48.548Z,3.90
2022-12-25T07:27:16.860Z,3.92
2022-12-25T07:29:44.530Z,3.94
2022-12-25T07:32:12.331Z,3.96
2022-12-25T07:34:40.465Z,3.99
2022-12-25T07:37:08.193Z,4.01
2022-12-25T07:39:36.097Z,4.04
2022-12-25T07:42:04.228Z,4.07
2022-12-25T07:44:32.328Z,4.11
2022-12-25T07:47:00.152Z,4.14
2022-12-25T07:49:28.122Z,4.17
2022-12-25T07:51:55.838Z,4.20
2022-12-25T07:54:23.618Z,4.24
2022-12-25T07:56:52.505Z,4.27
2022-12-25T07:59:20.617Z,4.30
2022-12-25T08:01:50.552Z,4.34
2022-12-25T08:04:18.779Z,4.37
2022-12-25T08:06:46.487Z,4.41
2022-12-25T08:09:14.255Z,4.45
2022-12-25T08:11:46.656Z,4.48
2022-12-25T08:14:14.749Z,4.52
2022-12-25T08:16:42.754Z,4.54
2022-12-25T08:19:11.768Z,4.61
2022-12-25T08:21:39.541Z,4.67
2022-12-25T08:24:07.529Z,4.71
2022-12-25T08:26:35.381Z,4.72
2022-12-25T08:29:03.403Z,4.76
2022-12-25T08:31:34.144Z,4.78
2022-12-25T08:34:03.089Z,4.79
2022-12-25T08:36:30.922Z,4.80
2022-12-25T08:39:02.987Z,4.82
2022-12-25T08:41:32.130Z,4.84
2022-12-25T08:44:00.194Z,4.87
2022-12-25T08:46:28.136Z,4.92
2022-12-25T08:48:57.150Z,4.94
2022-12-25T08:51:25.666Z,4.97
2022-12-25T08:53:57.851Z,5.01
2022-12-25T08:56:26.192Z,5.06
2022-12-25T08:58:54.330Z,5.12
2022-12-25T09:01:22.728Z,5.18
2022-12-25T09:03:50.972Z,5.25
2022-12-25T09:06:19.367Z,5.33
2022-12-25T09:08:49.553Z,5.40
2022-12-25T09:11:18.521Z,5.48
2022-12-25T09:13:46.803Z,5.55
2022-12-25T09:16:16.508Z,5.62
2022-12-25T09:18:46.650Z,5.70
2022-12-25T09:21:15.468Z,5.76
2022-12-25T09:23:45.213Z,5.83
2022-12-25T09:26:14.684Z,5.89
2022-12-25T09:28:50.293Z,5.98
2022-12-25T09:31:20.702Z,6.05
2022-12-25T09:33:49.149Z,6.13
2022-12-25T09:36:17.310Z,6.20
2022-12-25T09:38:45.387Z,6.27
2022-12-25T09:41:32.104Z,6.34
2022-12-25T09:44:10.289Z,6.42
2022-12-25T09:46:41.334Z,6.50
2022-12-25T09:49:20.345Z,6.60
2022-12-25T09:51:52.387Z,6.68
2022-12-25T09:54:24.635Z,6.78
2022-12-25T09:56:52.465Z,6.87
2022-12-25T09:59:27.404Z,6.99
2022-12-25T10:02:06.533Z,7.09
2022-12-25T10:04:40.494Z,7.20
2022-12-25T10:07:15.293Z,7.29
2022-12-25T10:09:50.942Z,7.39
2022-12-25T10:12:27.230Z,7.48
2022-12-25T10:15:04.444Z,7.58
2022-12-25T10:17:51.255Z,7.68
2022-12-25T10:20:19.197Z,7.76
2022-12-25T10:22:51.511Z,7.81
2022-12-25T10:25:23.830Z,7.86
2022-12-25T10:27:55.477Z,7.88
2022-12-25T10:30:24.117Z,7.90
2022-12-25T10:32:52.960Z,7.91
2022-12-25T10:35:22.279Z,7.91
2022-12-25T10:38:00.604Z,7.92
2022-12-25T10:40:29.561Z,7.95
2022-12-25T10:43:04.488Z,7.99
2022-12-25T10:45:42.011Z,8.03
2022-12-25T10:48:15.038Z,8.06
2022-12-25T10:50:43.308Z,8.12
2022-12-25T10:53:18.172Z,8.20
2022-12-25T10:56:02.869Z,8.28
2022-12-25T10:58:31.103Z,8.37
2022-12-25T11:01:02.044Z,8.46
2022-12-25T11:03:31.998Z,8.56
2022-12-25T11:06:00.341Z,8.65
2022-12-25T11:08:33.302Z,8.76
2022-12-25T11:11:09.342Z,8.84
2022-12-25T11:13:47.855Z,8.93
2022-12-25T11:16:28.081Z,9.01
2022-12-25T11:18:56.589Z,9.08
2022-12-25T11:21:24.349Z,9.15
2022-12-25T11:23:58.133Z,9.22
2022-12-25T11:26:26.642Z,9.30
2022-12-25T11:28:56.391Z,9.38
2022-12-25T11:31:33.114Z,9.45
2022-12-25T11:34:10.382Z,9.50
2022-12-25T11:36:48.704Z,9.57
2022-12-25T11:39:17.817Z,9.61
2022-12-25T11:41:45.971Z,9.64
2022-12-25T11:44:27.515Z,9.66
2022-12-25T11:46:56.313Z,9.73
2022-12-25T11:49:24.561Z,9.78
2022-12-25T11:51:54.424Z,9.83
2022-12-25T11:54:31.010Z,9.87
2022-12-25T11:57:00.062Z,9.96
2022-12-25T11:59:31.988Z,10.07
2022-12-25T12:02:18.238Z,10.18
2022-12-25T12:04:49.689Z,10.31
2022-12-25T12:07:21.751Z,10.43
2022-12-25T12:10:03.444Z,10.55
2022-12-25T12:12:50.908Z,10.71
2022-12-25T12:15:39.544Z,10.90
2022-12-25T12:18:29.214Z,11.07
2022-12-25T12:21:08.110Z,11.22
2022-12-25T12:23:47.498Z,11.38
2022-12-25T12:26:26.021Z,11.60
2022-12-25T12:29:23.543Z,11.81
2022-12-25T12:31:54.370Z,12.03
2022-12-25T12:34:24.175Z,12.22
2022-12-25T12:36:54.741Z,12.35
2022-12-25T12:39:25.676Z,12.45
2022-12-25T12:41:54.248Z,12.56
2022-12-25T12:44:26.366Z,12.69
2022-12-25T12:46:56.854Z,12.82
2022-12-25T12:49:35.622Z,12.94
2022-12-25T12:52:23.810Z,13.04
2022-12-25T12:54:55.675Z,13.13
2022-12-25T12:57:25.599Z,13.17
2022-12-25T12:59:53.433Z,13.22
2022-12-25T13:02:30.184Z,13.29
2022-12-25T13:05:06.874Z,13.35
2022-12-25T13:07:44.310Z,13.42
2022-12-25T13:10:24.339Z,13.48
2022-12-25T13:12:58.297Z,13.54
2022-12-25T13:15:27.962Z,13.55
2022-12-25T13:17:57.557Z,13.38
2022-12-25T13:20:33.302Z,13.15
2022-12-25T13:23:01.223Z,12.90
2022-12-25T13:25:28.814Z,12.67
2022-12-25T13:27:57.332Z,12.43
2022-12-25T13:30:25.717Z,12.17
2022-12-25T13:32:53.624Z,11.92
2022-12-25T13:35:23.015Z,11.66
2022-12-25T13:37:51.256Z,11.40
2022-12-25T13:40:25.321Z,11.19
2022-12-25T13:43:00.557Z,11.04
2022-12-25T13:45:30.110Z,10.99
2022-12-25T13:47:58.328Z,11.05
2022-12-25T13:50:26.019Z,11.10
2022-12-25T13:52:54.875Z,11.12
2022-12-25T13:55:24.576Z,11.12
2022-12-25T13:57:59.726Z,11.08
2022-12-25T14:00:36.563Z,11.04
2022-12-25T14:03:05.568Z,10.92
2022-12-25T14:05:42.138Z,10.78
2022-12-25T14:08:15.673Z,10.65
2022-12-25T14:10:46.411Z,10.50
2022-12-25T14:13:15.075Z,10.39
2022-12-25T14:15:43.852Z,10.29
2022-12-25T14:18:14.957Z,10.18
2022-12-25T14:20:54.403Z,10.05
2022-12-25T14:23:22.421Z,9.90
2022-12-25T14:25:50.230Z,9.78
2022-12-25T14:28:19.969Z,9.68
2022-12-25T14:30:48.369Z,9.59
2022-12-25T14:33:17.653Z,9.48
2022-12-25T14:35:45.872Z,9.39
2022-12-25T14:38:23.546Z,9.30
2022-12-25T14:41:01.981Z,9.21
2022-12-25T14:43:31.249Z,9.12
2022-12-25T14:46:02.666Z,9.05
2022-12-25T14:48:31.453Z,8.99
2022-12-25T14:51:05.573Z,8.93
2022-12-25T14:53:53.198Z,8.86
2022-12-25T14:56:22.326Z,8.79
2022-12-25T14:58:51.845Z,8.73
2022-12-25T15:01:39.973Z,8.69
2022-12-25T15:04:08.003Z,8.66
2022-12-25T15:06:37.278Z,8.62
2022-12-25T15:09:14.758Z,8.57
2022-12-25T15:11:42.803Z,8.52
2022-12-25T15:14:10.363Z,8.48
2022-12-25T15:16:41.339Z,8.44
2022-12-25T15:19:13.043Z,8.40
2022-12-25T15:21:40.663Z,8.37
2022-12-25T15:24:11.850Z,8.35
2022-12-25T15:26:39.852Z,8.34
2022-12-25T15:29:07.820Z,8.31
2022-12-25T15:31:37.048Z,8.29
2022-12-25T15:34:07.771Z,8.26
2022-12-25T15:36:35.573Z,8.21
2022-12-25T15:39:03.290Z,8.16
2022-12-25T15:41:52.811Z,8.10
2022-12-25T15:44:20.735Z,8.04
2022-12-25T15:46:48.799Z,8.01
2022-12-25T15:49:16.973Z,7.95
2022-12-25T15:51:44.949Z,7.90
2022-12-25T15:54:13.990Z,7.86
2022-12-25T15:56:41.586Z,7.85
2022-12-25T15:59:10.085Z,7.82
2022-12-25T16:01:40.573Z,7.78
2022-12-25T16:04:08.337Z,7.75
2022-12-25T16:06:36.009Z,7.73
2022-12-25T16:09:03.983Z,7.73
2022-12-25T16:11:32.018Z,7.73
2022-12-25T16:13:59.978Z,7.72
2022-12-25T16:16:28.003Z,7.71
2022-12-25T16:18:57.758Z,7.71
2022-12-25T16:21:25.584Z,7.71
2022-12-25T16:23:53.476Z,7.70
2022-12-25T16:26:21.130Z,7.68
2022-12-25T16:28:48.992Z,7.63
2022-12-25T16:31:17.055Z,7.59
2022-12-25T16:33:46.999Z,7.53
2022-12-25T16:36:20.727Z,7.50
2022-12-25T16:38:52.971Z,7.46
2022-12-25T16:41:22.082Z,7.42
2022-12-25T16:43:49.918Z,7.38
2022-12-25T16:46:19.421Z,7.33
2022-12-25T16:48:47.418Z,7.30
2022-12-25T16:51:18.183Z,7.28
2022-12-25T16:53:46.286Z,7.27
2022-12-25T16:56:16.482Z,7.26
2022-12-25T16:58:46.745Z,7.25
2022-12-25T17:01:16.857Z,7.24
2022-12-25T17:03:44.622Z,7.24
2022-12-25T17:06:13.742Z,7.24
2022-12-25T17:08:43.454Z,7.23
2022-12-25T17:11:11.916Z,7.22
2022-12-25T17:13:39.673Z,7.22
2022-12-25T17:16:18.609Z,7.23
2022-12-25T17:18:46.356Z,7.23
2022-12-25T17:21:14.988Z,7.22
2022-12-25T17:23:47.792Z,7.21
2022-12-25T17:26:16.418Z,7.17
2022-12-25T17:28:44.264Z,7.13
2022-12-25T17:31:16.455Z,7.08
2022-12-25T17:33:44.592Z,7.03
2022-12-25T17:36:14.775Z,7.03
2022-12-25T17:38:43.198Z,7.03
2022-12-25T17:41:12.271Z,7.02
2022-12-25T17:43:42.696Z,7.01
2022-12-25T17:46:17.171Z,6.99
2022-12-25T17:48:45.986Z,6.99
2022-12-25T17:51:16.094Z,6.99
2022-12-25T17:53:44.957Z,6.98
2022-12-25T17:56:17.196Z,6.97
2022-12-25T17:58:49.332Z,6.95
2022-12-25T18:01:17.855Z,6.94
2022-12-25T18:03:45.866Z,6.93
2022-12-25T18:06:17.996Z,6.93
2022-12-25T18:08:46.618Z,6.92
2022-12-25T18:11:15.746Z,6.91
2022-12-25T18:13:45.069Z,6.91
2022-12-25T18:16:13.365Z,6.87
2022-12-25T18:18:45.195Z,6.83
2022-12-25T18:21:17.813Z,6.81
2022-12-25T18:23:46.492Z,6.80
2022-12-25T18:26:15.564Z,6.78
2022-12-25T18:28:44.057Z,6.77
2022-12-25T18:31:13.793Z,6.75
2022-12-25T18:33:42.164Z,6.72
2022-12-25T18:36:10.928Z,6.71
2022-12-25T18:38:38.576Z,6.68
2022-12-25T18:41:07.062Z,6.67
2022-12-25T18:43:52.711Z,6.66
2022-12-25T18:46:24.940Z,6.66
2022-12-25T18:48:56.639Z,6.68
2022-12-25T18:51:24.644Z,6.68
2022-12-25T18:53:52.298Z,6.68
2022-12-25T18:56:21.956Z,6.69
2022-12-25T18:58:49.668Z,6.69
2022-12-25T19:01:22.204Z,6.70
2022-12-25T19:03:51.888Z,6.72
2022-12-25T19:06:23.953Z,6.74
2022-12-25T19:08:52.520Z,6.75
2022-12-25T19:11:20.354Z,6.76
2022-12-25T19:13:48.046Z,6.77
2022-12-25T19:16:17.976Z,6.78
2022-12-25T19:18:45.966Z,6.78
2022-12-25T19:21:14.058Z,6.80
2022-12-25T19:23:42.001Z,6.82
2022-12-25T19:26:10.551Z,6.83
2022-12-25T19:28:38.761Z,6.84
2022-12-25T19:31:07.693Z,6.85
2022-12-25T19:33:36.662Z,6.84
2022-12-25T19:36:05.780Z,6.84
2022-12-25T19:38:33.769Z,6.83
2022-12-25T19:41:05.905Z,6.83
2022-12-25T19:43:35.449Z,6.82
2022-12-25T19:46:03.567Z,6.81
2022-12-25T19:48:32.561Z,6.81
2022-12-25T19:51:00.271Z,6.79
2022-12-25T19:53:29.408Z,6.78
2022-12-25T19:56:01.176Z,6.76
2022-12-25T19:58:31.114Z,6.74
2022-12-25T20:01:05.546Z,6.71
2022-12-25T20:03:38.765Z,6.70
2022-12-25T20:06:22.042Z,6.69
2022-12-25T20:08:52.987Z,6.67
2022-12-25T20:11:21.647Z,6.66
2022-12-25T20:13:49.917Z,6.65
2022-12-25T20:16:18.097Z,6.63
2022-12-25T20:18:48.523Z,6.60
2022-12-25T20:21:18.020Z,6.58
2022-12-25T20:23:48.020Z,6.58
2022-12-25T20:26:17.412Z,6.56
2022-12-25T20:28:46.665Z,6.55
2022-12-25T20:31:22.024Z,6.52
2022-12-25T20:33:50.190Z,6.48
2022-12-25T20:36:18.945Z,6.45
2022-12-25T20:38:46.848Z,6.45
2022-12-25T20:41:31.166Z,6.45
2022-12-25T20:44:02.059Z,6.45
2022-12-25T20:46:30.146Z,6.44
2022-12-25T20:48:57.945Z,6.46
2022-12-25T20:51:26.426Z,6.44
2022-12-25T20:53:55.478Z,6.44
2022-12-25T20:56:24.235Z,6.45
2022-12-25T20:58:53.553Z,6.45
2022-12-25T21:01:21.534Z,6.45
2022-12-25T21:03:49.583Z,6.43
2022-12-25T21:06:18.114Z,6.42
2022-12-25T21:08:45.716Z,6.43
2022-12-25T21:11:16.359Z,6.42
2022-12-25T21:13:46.225Z,6.43
2022-12-25T21:16:16.184Z,6.43
2022-12-25T21:18:46.504Z,6.46
2022-12-25T21:21:15.240Z,6.48
2022-12-25T21:23:42.901Z,6.51
2022-12-25T21:26:11.162Z,6.52
2022-12-25T21:28:39.369Z,6.50
2022-12-25T21:31:07.764Z,6.49
2022-12-25T21:33:54.552Z,6.47
2022-12-25T21:36:26.828Z,6.47
2022-12-25T21:38:59.005Z,6.45
2022-12-25T21:41:28.072Z,6.44
2022-12-25T21:43:56.053Z,6.42
2022-12-25T21:46:24.436Z,6.43
2022-12-25T21:48:52.845Z,6.42
2022-12-25T21:51:40.744Z,6.43
2022-12-25T21:54:10.016Z,6.44
2022-12-25T21:56:43.998Z,6.47
2022-12-25T21:59:15.214Z,6.46
2022-12-25T22:01:44.652Z,6.48
2022-12-25T22:04:13.899Z,6.53
2022-12-25T22:07:00.998Z,6.58
2022-12-25T22:09:28.988Z,6.64
2022-12-25T22:12:17.259Z,6.69
2022-12-25T22:14:54.773Z,6.71
2022-12-25T22:17:43.863Z,6.72
2022-12-25T22:20:14.160Z,6.70
2022-12-25T22:22:42.015Z,6.69
2022-12-25T22:25:11.048Z,6.68
2022-12-25T22:27:39.905Z,6.67
2022-12-25T22:30:09.739Z,6.65
2022-12-25T22:32:37.678Z,6.66
2022-12-25T22:35:05.649Z,6.67
2022-12-25T22:37:33.493Z,6.68
2022-12-25T22:40:03.044Z,6.69
2022-12-25T22:42:30.788Z,6.67
2022-12-25T22:44:58.704Z,6.66
2022-12-25T22:47:26.438Z,6.68
2022-12-25T22:49:54.146Z,6.68
2022-12-25T22:52:22.388Z,6.68
2022-12-25T22:54:50.285Z,6.69
2022-12-25T22:57:17.921Z,6.68
2022-12-25T22:59:47.135Z,6.69
2022-12-25T23:02:15.129Z,6.69
2022-12-25T23:04:42.968Z,6.68
2022-12-25T23:07:14.258Z,6.69
2022-12-25T23:09:42.739Z,6.70
2022-12-25T23:12:30.522Z,6.69
2022-12-25T23:14:58.887Z,6.69
2022-12-25T23:17:45.588Z,6.69
2022-12-25T23:20:33.317Z,6.68
2022-12-25T23:23:19.935Z,6.67
2022-12-25T23:26:06.992Z,6.70
2022-12-25T23:28:53.981Z,6.73
2022-12-25T23:31:24.825Z,6.77
2022-12-25T23:33:52.483Z,6.79
2022-12-25T23:36:20.155Z,6.81
2022-12-25T23:38:48.158Z,6.81
2022-12-25T23:41:15.831Z,6.81
2022-12-25T23:43:43.424Z,6.81
2022-12-25T23:46:11.445Z,6.81
2022-12-25T23:48:39.095Z,6.82
2022-12-25T23:51:07.285Z,6.83
2022-12-25T23:53:35.547Z,6.84
2022-12-25T23:56:03.908Z,6.87
2022-12-25T23:58:33.371Z,6.89
